Prosperity — WDB9911 — position and weather

sailwx.info

Track history (hours):
 
Tides and Currents Weather Stations Pressure Air Temp Water Temp Dewpoint Dewpoint Depression Visibility Wind Speed Wind Dir Waves Ship Positions

Prosperity

Owner: American River Transportation Company, St Louis, MO. More information available from US FCC via Universal Licensing System and Coast Guard Vessel Documentation Center.

Last reported at 2018-May-15 09:10 UTC. Time now 2018-May-24 11:57 UTC.
Position N 39°23' W 090°55'.
Warning: this ship's position is 9 days out of date.

Length 51 m.

Type: Towing. MMSI: 366984960.

Date/timePositionNaut miles runAvg speedWind from/ knotsBaromVisibWave heightAir tempDewpointWater temp
2018-May-15 09:10N 39°23' W 090°55'1 4.3
2018-May-15 09:00N 39°22' W 090°54'0 0.4
2018-May-15 08:31N 39°22' W 090°54'0 0.0
2018-May-15 07:56N 39°22' W 090°54'1 1.5
2018-May-15 07:30N 39°22' W 090°54'2 4.8
2018-May-15 07:00N 39°21' W 090°51'7 4.5
2018-May-15 05:21N 39°16' W 090°44'6 2.4
2018-May-15 02:50N 39°10' W 090°43'1 3.5
2018-May-15 02:30N 39°08' W 090°42'2 3.8
2018-May-15 02:00N 39°07' W 090°41'3 3.8
2018-May-15 01:11N 39°04' W 090°42'1 4.2
2018-May-15 01:00N 39°03' W 090°43'2 4.1
2018-May-15 00:30N 39°01' W 090°42'1 2.3
2018-May-15 00:00N 39°00' W 090°41'0 0.0
2018-May-14 23:29N 39°00' W 090°41'0 0.0
2018-May-14 23:00N 39°00' W 090°41'0 0.0
2018-May-14 22:30N 39°00' W 090°41'0 0.1
2018-May-14 22:00N 39°00' W 090°41'0 0.1
2018-May-14 21:30N 39°00' W 090°41'0 0.9
2018-May-14 21:00N 38°60' W 090°41'2 3.3
2018-May-14 20:29N 38°58' W 090°40'2 3.6
2018-May-14 20:00N 38°56' W 090°40'2 3.4
2018-May-14 19:30N 38°55' W 090°39'2 3.5
2018-May-14 19:00N 38°53' W 090°38'2 3.4
2018-May-14 18:30N 38°52' W 090°36'2 3.5
2018-May-14 18:00N 38°52' W 090°34'2 3.3
2018-May-14 17:30N 38°53' W 090°32'2 3.3
2018-May-14 17:00N 38°54' W 090°31'2 3.5
2018-May-14 16:30N 38°56' W 090°30'2 3.2
2018-May-14 16:00N 38°57' W 090°28'2 3.4
2018-May-14 15:30N 38°58' W 090°26'2 3.5
2018-May-14 15:00N 38°58' W 090°24'2 3.7
2018-May-14 14:30N 38°57' W 090°22'2 3.7
2018-May-14 14:00N 38°56' W 090°20'2 3.6
2018-May-14 13:30N 38°55' W 090°18'2 3.6
2018-May-14 13:00N 38°55' W 090°16'1 2.7
2018-May-14 12:30N 38°55' W 090°14'0 0.0
2018-May-14 12:00N 38°55' W 090°14'0 0.0
2018-May-14 11:30N 38°55' W 090°14'1 1.5
2018-May-14 11:00N 38°54' W 090°13'2 3.1
2018-May-14 10:30N 38°53' W 090°12'2 3.3
2018-May-14 10:00N 38°53' W 090°10'1 1.7
2018-May-14 09:29N 38°52' W 090°09'1 2.1
2018-May-14 09:00N 38°52' W 090°08'2 3.2
2018-May-14 08:30N 38°50' W 090°06'2 3.9
2018-May-14 08:00N 38°48' W 090°07'2 4.0
2018-May-14 07:30N 38°47' W 090°08'2 4.3
2018-May-14 07:00N 38°45' W 090°09'2 4.0
2018-May-14 06:29N 38°43' W 090°10'1 2.0
2018-May-14 06:00N 38°42' W 090°11'1 2.4
2018-May-14 05:30N 38°41' W 090°11'2 4.0
2018-May-14 05:00N 38°39' W 090°11'1 0.2
2018-May-14 02:15N 38°38' W 090°11'0 1.5
2018-May-14 01:59N 38°38' W 090°11'2 3.7
2018-May-14 01:30N 38°36' W 090°11'1 0.0
2018-May-12 13:28N 38°35' W 090°12'1 2.1
2018-May-12 12:59N 38°36' W 090°12'0 0.2
2018-May-12 12:01N 38°36' W 090°11'0 0.8
2018-May-12 11:59N 38°36' W 090°11'3 6.7
2018-May-12 11:30N 38°39' W 090°11'3 5.3
2018-May-12 11:00N 38°42' W 090°11'0 0.7
2018-May-12 10:30N 38°42' W 090°11'1 2.6
2018-May-12 10:00N 38°43' W 090°10'2 3.7
2018-May-12 09:30N 38°45' W 090°09'2 3.5
2018-May-12 08:58N 38°47' W 090°08'2 5.3
2018-May-12 08:30N 38°49' W 090°07'3 6.2
2018-May-12 08:00N 38°52' W 090°09'1 1.0
2018-May-12 07:28N 38°52' W 090°09'1 1.7
2018-May-12 07:00N 38°53' W 090°10'3 5.5
2018-May-12 06:30N 38°54' W 090°13'1 2.7
2018-May-12 06:00N 38°55' W 090°14'3 5.3
2018-May-12 05:30N 38°55' W 090°18'3 5.3
2018-May-12 05:00N 38°56' W 090°21'3 5.8
2018-May-12 04:30N 38°58' W 090°24'3 6.5
2018-May-12 04:00N 38°57' W 090°28'3 6.9
2018-May-12 03:30N 38°55' W 090°31'3 6.4
2018-May-12 03:00N 38°52' W 090°34'3 6.1
2018-May-12 02:30N 38°53' W 090°38'3 6.7
2018-May-12 02:00N 38°56' W 090°40'4 7.0
2018-May-12 01:30N 38°59' W 090°41'1 2.1
2018-May-12 01:00N 39°00' W 090°41'0 0.1
2018-May-12 00:30N 39°00' W 090°41'0 0.2
2018-May-12 00:00N 39°00' W 090°41'0 0.4
2018-May-11 23:30N 39°00' W 090°42'2 4.2
2018-May-11 23:00N 39°02' W 090°43'4 5.7
2018-May-11 22:17N 39°06' W 090°41'2 6.3
2018-May-11 22:00N 39°08' W 090°42'  
Track history (hours):
 
Tides and Currents Weather Stations Pressure Air Temp Water Temp Dewpoint Dewpoint Depression Visibility Wind Speed Wind Dir Waves Ship Positions

Prosperity

Owner: American River Transportation Company, St Louis, MO. More information available from US FCC via Universal Licensing System and Coast Guard Vessel Documentation Center.

Last reported at 2018-May-15 09:10 UTC. Time now 2018-May-24 11:57 UTC.
Position N 39°23' W 090°55'.
Warning: this ship's position is 9 days out of date.

Length 51 m.

Type: Towing. MMSI: 366984960.

Date/timePositionNaut miles runAvg speedWind from/ knotsBaromVisibWave heightAir tempDewpointWater temp
2018-May-15 09:10N 39°23' W 090°55'1 4.3
2018-May-15 09:00N 39°22' W 090°54'0 0.4
2018-May-15 08:31N 39°22' W 090°54'0 0.0
2018-May-15 07:56N 39°22' W 090°54'1 1.5
2018-May-15 07:30N 39°22' W 090°54'2 4.8
2018-May-15 07:00N 39°21' W 090°51'7 4.5
2018-May-15 05:21N 39°16' W 090°44'6 2.4
2018-May-15 02:50N 39°10' W 090°43'1 3.5
2018-May-15 02:30N 39°08' W 090°42'2 3.8
2018-May-15 02:00N 39°07' W 090°41'3 3.8
2018-May-15 01:11N 39°04' W 090°42'1 4.2
2018-May-15 01:00N 39°03' W 090°43'2 4.1
2018-May-15 00:30N 39°01' W 090°42'1 2.3
2018-May-15 00:00N 39°00' W 090°41'0 0.0
2018-May-14 23:29N 39°00' W 090°41'0 0.0
2018-May-14 23:00N 39°00' W 090°41'0 0.0
2018-May-14 22:30N 39°00' W 090°41'0 0.1
2018-May-14 22:00N 39°00' W 090°41'0 0.1
2018-May-14 21:30N 39°00' W 090°41'0 0.9
2018-May-14 21:00N 38°60' W 090°41'2 3.3
2018-May-14 20:29N 38°58' W 090°40'2 3.6
2018-May-14 20:00N 38°56' W 090°40'2 3.4
2018-May-14 19:30N 38°55' W 090°39'2 3.5
2018-May-14 19:00N 38°53' W 090°38'2 3.4
2018-May-14 18:30N 38°52' W 090°36'2 3.5
2018-May-14 18:00N 38°52' W 090°34'2 3.3
2018-May-14 17:30N 38°53' W 090°32'2 3.3
2018-May-14 17:00N 38°54' W 090°31'2 3.5
2018-May-14 16:30N 38°56' W 090°30'2 3.2
2018-May-14 16:00N 38°57' W 090°28'2 3.4
2018-May-14 15:30N 38°58' W 090°26'2 3.5
2018-May-14 15:00N 38°58' W 090°24'2 3.7
2018-May-14 14:30N 38°57' W 090°22'2 3.7
2018-May-14 14:00N 38°56' W 090°20'2 3.6
2018-May-14 13:30N 38°55' W 090°18'2 3.6
2018-May-14 13:00N 38°55' W 090°16'1 2.7
2018-May-14 12:30N 38°55' W 090°14'0 0.0
2018-May-14 12:00N 38°55' W 090°14'0 0.0
2018-May-14 11:30N 38°55' W 090°14'1 1.5
2018-May-14 11:00N 38°54' W 090°13'2 3.1
2018-May-14 10:30N 38°53' W 090°12'2 3.3
2018-May-14 10:00N 38°53' W 090°10'1 1.7
2018-May-14 09:29N 38°52' W 090°09'1 2.1
2018-May-14 09:00N 38°52' W 090°08'2 3.2
2018-May-14 08:30N 38°50' W 090°06'2 3.9
2018-May-14 08:00N 38°48' W 090°07'2 4.0
2018-May-14 07:30N 38°47' W 090°08'2 4.3
2018-May-14 07:00N 38°45' W 090°09'2 4.0
2018-May-14 06:29N 38°43' W 090°10'1 2.0
2018-May-14 06:00N 38°42' W 090°11'1 2.4
2018-May-14 05:30N 38°41' W 090°11'2 4.0
2018-May-14 05:00N 38°39' W 090°11'1 0.2
2018-May-14 02:15N 38°38' W 090°11'0 1.5
2018-May-14 01:59N 38°38' W 090°11'2 3.7
2018-May-14 01:30N 38°36' W 090°11'1 0.0
2018-May-12 13:28N 38°35' W 090°12'1 2.1
2018-May-12 12:59N 38°36' W 090°12'0 0.2
2018-May-12 12:01N 38°36' W 090°11'0 0.8
2018-May-12 11:59N 38°36' W 090°11'3 6.7
2018-May-12 11:30N 38°39' W 090°11'3 5.3
2018-May-12 11:00N 38°42' W 090°11'0 0.7
2018-May-12 10:30N 38°42' W 090°11'1 2.6
2018-May-12 10:00N 38°43' W 090°10'2 3.7
2018-May-12 09:30N 38°45' W 090°09'2 3.5
2018-May-12 08:58N 38°47' W 090°08'2 5.3
2018-May-12 08:30N 38°49' W 090°07'3 6.2
2018-May-12 08:00N 38°52' W 090°09'1 1.0
2018-May-12 07:28N 38°52' W 090°09'1 1.7
2018-May-12 07:00N 38°53' W 090°10'3 5.5
2018-May-12 06:30N 38°54' W 090°13'1 2.7
2018-May-12 06:00N 38°55' W 090°14'3 5.3
2018-May-12 05:30N 38°55' W 090°18'3 5.3
2018-May-12 05:00N 38°56' W 090°21'3 5.8
2018-May-12 04:30N 38°58' W 090°24'3 6.5
2018-May-12 04:00N 38°57' W 090°28'3 6.9
2018-May-12 03:30N 38°55' W 090°31'3 6.4
2018-May-12 03:00N 38°52' W 090°34'3 6.1
2018-May-12 02:30N 38°53' W 090°38'3 6.7
2018-May-12 02:00N 38°56' W 090°40'4 7.0
2018-May-12 01:30N 38°59' W 090°41'1 2.1
2018-May-12 01:00N 39°00' W 090°41'0 0.1
2018-May-12 00:30N 39°00' W 090°41'0 0.2
2018-May-12 00:00N 39°00' W 090°41'0 0.4
2018-May-11 23:30N 39°00' W 090°42'2 4.2
2018-May-11 23:00N 39°02' W 090°43'4 5.7
2018-May-11 22:17N 39°06' W 090°41'2 6.3
2018-May-11 22:00N 39°08' W 090°42'  

Dump ship's entire track history